createdAt,value
2022-10-16T00:00:22.641Z,1013.29
2022-10-16T00:01:22.792Z,1013.29
2022-10-16T00:02:23.063Z,1013.33
2022-10-16T00:03:26.634Z,1013.36
2022-10-16T00:04:24.331Z,1013.33
2022-10-16T00:05:23.510Z,1013.30
2022-10-16T00:06:23.708Z,1013.34
2022-10-16T00:07:24.136Z,1013.35
2022-10-16T00:08:24.022Z,1013.31
2022-10-16T00:09:24.182Z,1013.35
2022-10-16T00:10:24.371Z,1013.34
2022-10-16T00:11:24.530Z,1013.36
2022-10-16T00:12:24.999Z,1013.40
2022-10-16T00:13:24.870Z,1013.41
2022-10-16T00:14:25.031Z,1013.35
2022-10-16T00:15:25.191Z,1013.36
2022-10-16T00:16:25.380Z,1013.39
2022-10-16T00:17:25.559Z,1013.38
2022-10-16T00:18:25.744Z,1013.41
2022-10-16T00:19:25.891Z,1013.43
2022-10-16T00:20:26.100Z,1013.44
2022-10-16T00:21:26.240Z,1013.46
2022-10-16T00:22:26.813Z,1013.54
2022-10-16T00:23:26.622Z,1013.50
2022-10-16T00:24:26.781Z,1013.49
2022-10-16T00:25:26.973Z,1013.47
2022-10-16T00:26:27.169Z,1013.51
2022-10-16T00:27:27.343Z,1013.49
2022-10-16T00:28:27.551Z,1013.49
2022-10-16T00:29:27.692Z,1013.54
2022-10-16T00:30:27.857Z,1013.57
2022-10-16T00:31:28.025Z,1013.59
2022-10-16T00:32:28.502Z,1013.60
2022-10-16T00:33:28.371Z,1013.61
2022-10-16T00:34:28.552Z,1013.61
2022-10-16T00:35:28.741Z,1013.59
2022-10-16T00:36:28.922Z,1013.54
2022-10-16T00:37:29.082Z,1013.54
2022-10-16T00:38:29.272Z,1013.55
2022-10-16T00:39:29.461Z,1013.56
2022-10-16T00:40:29.621Z,1013.55
2022-10-16T00:41:29.784Z,1013.53
2022-10-16T00:42:29.947Z,1013.50
2022-10-16T00:43:30.103Z,1013.52
2022-10-16T00:44:30.294Z,1013.52
2022-10-16T00:45:30.454Z,1013.57
2022-10-16T00:46:30.634Z,1013.52
2022-10-16T00:47:30.793Z,1013.59
2022-10-16T00:48:30.953Z,1013.61
2022-10-16T00:49:31.113Z,1013.66
2022-10-16T00:50:31.274Z,1013.67
2022-10-16T00:51:31.474Z,1013.66
2022-10-16T00:52:31.634Z,1013.72
2022-10-16T00:53:31.791Z,1013.67
2022-10-16T00:54:31.983Z,1013.66
2022-10-16T00:55:32.146Z,1013.68
2022-10-16T00:56:32.324Z,1013.63
2022-10-16T00:57:32.474Z,1013.71
2022-10-16T00:58:32.673Z,1013.71
2022-10-16T00:59:32.825Z,1013.71
2022-10-16T01:00:33.021Z,1013.72
2022-10-16T01:01:33.270Z,1013.73
2022-10-16T01:02:33.394Z,1013.73
2022-10-16T01:03:33.554Z,1013.71
2022-10-16T01:04:33.713Z,1013.70
2022-10-16T01:05:33.864Z,1013.64
2022-10-16T01:06:34.075Z,1013.60
2022-10-16T01:07:34.235Z,1013.63
2022-10-16T01:08:34.394Z,1013.67
2022-10-16T01:09:34.556Z,1013.70
2022-10-16T01:10:34.715Z,1013.75
2022-10-16T01:11:34.915Z,1013.77
2022-10-16T01:12:38.606Z,1013.73
2022-10-16T01:13:35.244Z,1013.73
2022-10-16T01:14:35.434Z,1013.75
2022-10-16T01:15:35.634Z,1013.80
2022-10-16T01:16:35.809Z,1013.83
2022-10-16T01:17:35.945Z,1013.82
2022-10-16T01:18:36.136Z,1013.83
2022-10-16T01:19:36.292Z,1013.83
2022-10-16T01:20:36.476Z,1013.84
2022-10-16T01:21:36.657Z,1013.82
2022-10-16T01:22:36.816Z,1013.87
2022-10-16T01:23:36.976Z,1013.87
2022-10-16T01:24:37.176Z,1013.86
2022-10-16T01:25:37.317Z,1013.86
2022-10-16T01:26:37.515Z,1013.89
2022-10-16T01:27:37.676Z,1013.89
2022-10-16T01:28:37.927Z,1013.89
2022-10-16T01:29:38.006Z,1013.98
2022-10-16T01:30:38.203Z,1013.88
2022-10-16T01:31:38.387Z,1013.90
2022-10-16T01:32:38.526Z,1013.93
2022-10-16T01:33:38.677Z,1013.90
2022-10-16T01:34:38.877Z,1013.91
2022-10-16T01:35:39.026Z,1013.93
2022-10-16T01:36:39.247Z,1013.92
2022-10-16T01:37:39.397Z,1013.97
2022-10-16T01:38:39.597Z,1013.95
2022-10-16T01:39:39.747Z,1013.97
2022-10-16T01:40:39.907Z,1013.96
2022-10-16T01:41:40.086Z,1014.01
2022-10-16T01:42:40.246Z,1014.00
2022-10-16T01:43:40.428Z,1014.00
2022-10-16T01:44:40.588Z,1014.01
2022-10-16T01:45:40.747Z,1014.04
2022-10-16T01:46:40.955Z,1014.08
2022-10-16T01:47:41.107Z,1014.08
2022-10-16T01:48:41.311Z,1014.05
2022-10-16T01:49:41.467Z,1014.05
2022-10-16T01:50:41.631Z,1014.04
2022-10-16T01:51:41.797Z,1014.06
2022-10-16T01:52:41.958Z,1014.05
2022-10-16T01:53:42.122Z,1014.09
2022-10-16T01:54:42.308Z,1014.13
2022-10-16T01:55:42.467Z,1014.14
2022-10-16T01:56:42.653Z,1014.16
2022-10-16T01:57:42.810Z,1014.18
2022-10-16T01:58:42.989Z,1014.18
2022-10-16T01:59:43.150Z,1014.18
2022-10-16T02:00:43.391Z,1014.12
2022-10-16T02:01:43.536Z,1014.11
2022-10-16T02:02:43.697Z,1014.17
2022-10-16T02:03:43.878Z,1014.19
2022-10-16T02:04:44.070Z,1014.22
2022-10-16T02:05:44.229Z,1014.28
2022-10-16T02:06:44.409Z,1014.27
2022-10-16T02:07:44.559Z,1014.28
2022-10-16T02:08:44.749Z,1014.28
2022-10-16T02:09:44.898Z,1014.27
2022-10-16T02:10:45.090Z,1014.24
2022-10-16T02:11:45.268Z,1014.27
2022-10-16T02:12:45.430Z,1014.31
2022-10-16T02:13:45.586Z,1014.35
2022-10-16T02:14:45.746Z,1014.36
2022-10-16T02:15:45.929Z,1014.40
2022-10-16T02:16:46.089Z,1014.41
2022-10-16T02:17:46.239Z,1014.39
2022-10-16T02:18:46.421Z,1014.36
2022-10-16T02:19:46.579Z,1014.31
2022-10-16T02:20:46.789Z,1014.31
2022-10-16T02:21:46.941Z,1014.25
2022-10-16T02:22:47.103Z,1014.21
2022-10-16T02:23:47.256Z,1014.24
2022-10-16T02:24:47.449Z,1014.23
2022-10-16T02:25:47.618Z,1014.30
2022-10-16T02:26:47.779Z,1014.31
2022-10-16T02:27:47.959Z,1014.27
2022-10-16T02:28:48.184Z,1014.28
2022-10-16T02:29:48.330Z,1014.28
2022-10-16T02:30:48.540Z,1014.32
2022-10-16T02:31:48.699Z,1014.34
2022-10-16T02:32:48.889Z,1014.32
2022-10-16T02:33:49.078Z,1014.35
2022-10-16T02:34:49.240Z,1014.40
2022-10-16T02:35:49.420Z,1014.41
2022-10-16T02:36:49.580Z,1014.41
2022-10-16T02:37:49.739Z,1014.37
2022-10-16T02:38:49.910Z,1014.33
2022-10-16T02:39:50.059Z,1014.34
2022-10-16T02:40:50.271Z,1014.35
2022-10-16T02:41:50.430Z,1014.34
2022-10-16T02:42:50.589Z,1014.32
2022-10-16T02:43:50.740Z,1014.32
2022-10-16T02:44:50.930Z,1014.31
2022-10-16T02:45:51.100Z,1014.31
2022-10-16T02:46:51.268Z,1014.32
2022-10-16T02:47:51.420Z,1014.32
2022-10-16T02:48:51.616Z,1014.36
2022-10-16T02:49:51.769Z,1014.35
2022-10-16T02:50:51.971Z,1014.36
2022-10-16T02:51:52.131Z,1014.36
2022-10-16T02:52:52.292Z,1014.36
2022-10-16T02:53:52.482Z,1014.27
2022-10-16T02:54:52.641Z,1014.26
2022-10-16T02:55:52.818Z,1014.33
2022-10-16T02:56:52.979Z,1014.34
2022-10-16T02:57:53.145Z,1014.41
2022-10-16T02:58:53.304Z,1014.36
2022-10-16T02:59:53.470Z,1014.38
2022-10-16T03:00:53.688Z,1014.35
2022-10-16T03:01:53.820Z,1014.41
2022-10-16T03:02:53.982Z,1014.41
2022-10-16T03:03:54.173Z,1014.44
2022-10-16T03:04:54.340Z,1014.41
2022-10-16T03:05:54.500Z,1014.43
2022-10-16T03:06:54.663Z,1014.44
2022-10-16T03:07:54.812Z,1014.46
2022-10-16T03:08:55.011Z,1014.47
2022-10-16T03:09:55.190Z,1014.44
2022-10-16T03:10:55.351Z,1014.43
2022-10-16T03:11:55.511Z,1014.43
2022-10-16T03:12:55.671Z,1014.39
2022-10-16T03:13:55.832Z,1014.38
2022-10-16T03:14:56.002Z,1014.37
2022-10-16T03:15:56.162Z,1014.41
2022-10-16T03:16:56.372Z,1014.38
2022-10-16T03:17:56.530Z,1014.41
2022-10-16T03:18:56.691Z,1014.45
2022-10-16T03:19:56.861Z,1014.54
2022-10-16T03:20:57.022Z,1014.57
2022-10-16T03:21:57.182Z,1014.61
2022-10-16T03:22:57.342Z,1014.60
2022-10-16T03:23:57.502Z,1014.62
2022-10-16T03:24:57.672Z,1014.62
2022-10-16T03:25:57.832Z,1014.60
2022-10-16T03:26:58.023Z,1014.63
2022-10-16T03:27:58.182Z,1014.70
2022-10-16T03:28:58.407Z,1014.69
2022-10-16T03:29:58.532Z,1014.69
2022-10-16T03:30:58.696Z,1014.73
2022-10-16T03:31:58.852Z,1014.76
2022-10-16T03:32:59.013Z,1014.75
2022-10-16T03:33:59.177Z,1014.79
2022-10-16T03:34:59.352Z,1014.82
2022-10-16T03:35:59.514Z,1014.83
2022-10-16T03:36:59.672Z,1014.86
2022-10-16T03:37:59.834Z,1014.86
2022-10-16T03:39:00.023Z,1014.87
2022-10-16T03:40:00.193Z,1014.89
2022-10-16T03:41:00.352Z,1014.86
2022-10-16T03:42:00.504Z,1014.86
2022-10-16T03:43:00.703Z,1014.88
2022-10-16T03:44:00.875Z,1014.93
2022-10-16T03:45:01.041Z,1014.94
2022-10-16T03:46:01.193Z,1014.97
2022-10-16T03:47:01.352Z,1015.02
2022-10-16T03:48:01.513Z,1015.06
2022-10-16T03:49:03.017Z,1015.05
2022-10-16T03:50:01.891Z,1015.07
2022-10-16T03:51:02.083Z,1015.08
2022-10-16T03:52:02.245Z,1015.11
2022-10-16T03:53:02.403Z,1015.11
2022-10-16T03:54:02.576Z,1015.11
2022-10-16T03:55:02.733Z,1015.13
2022-10-16T03:56:02.883Z,1015.12
2022-10-16T03:57:03.084Z,1015.18
2022-10-16T03:58:03.243Z,1015.17
2022-10-16T03:59:03.423Z,1015.20
2022-10-16T04:00:03.583Z,1015.19
2022-10-16T04:01:03.778Z,1015.20
2022-10-16T04:02:03.913Z,1015.19
2022-10-16T04:03:04.069Z,1015.14
2022-10-16T04:04:04.273Z,1015.12
2022-10-16T04:05:04.435Z,1015.07
2022-10-16T04:06:04.593Z,1015.08
2022-10-16T04:07:04.751Z,1015.11
2022-10-16T04:08:04.944Z,1015.12
2022-10-16T04:09:05.114Z,1015.10
2022-10-16T04:10:05.275Z,1015.14
2022-10-16T04:11:05.436Z,1015.11
2022-10-16T04:12:05.594Z,1015.08
2022-10-16T04:13:05.754Z,1015.07
2022-10-16T04:14:05.952Z,1015.10
2022-10-16T04:15:06.093Z,1015.17
2022-10-16T04:16:06.274Z,1015.17
2022-10-16T04:17:06.424Z,1015.19
2022-10-16T04:18:06.594Z,1015.17
2022-10-16T04:19:07.218Z,1015.13
2022-10-16T04:20:06.947Z,1015.09
2022-10-16T04:21:07.112Z,1015.04
2022-10-16T04:22:07.303Z,1015.03
2022-10-16T04:23:07.457Z,1015.00
2022-10-16T04:24:07.665Z,1015.01
2022-10-16T04:25:07.824Z,1015.04
2022-10-16T04:26:07.986Z,1015.00
2022-10-16T04:27:08.145Z,1014.94
2022-10-16T04:28:08.305Z,1014.97
2022-10-16T04:29:08.476Z,1014.95
2022-10-16T04:30:08.645Z,1015.00
2022-10-16T04:31:08.806Z,1014.99
2022-10-16T04:32:08.967Z,1014.98
2022-10-16T04:33:09.133Z,1015.03
2022-10-16T04:34:09.305Z,1015.01
2022-10-16T04:35:09.457Z,1014.99
2022-10-16T04:36:09.617Z,1015.00
2022-10-16T04:37:09.777Z,1015.01
2022-10-16T04:38:09.967Z,1014.99
2022-10-16T04:39:10.144Z,1014.98
2022-10-16T04:40:10.305Z,1014.99
2022-10-16T04:41:10.465Z,1014.95
2022-10-16T04:42:10.627Z,1014.98
2022-10-16T04:43:10.784Z,1014.98
2022-10-16T04:44:10.966Z,1014.94
2022-10-16T04:45:13.491Z,1014.94
2022-10-16T04:46:12.306Z,1014.97
2022-10-16T04:47:11.487Z,1014.99
2022-10-16T04:48:11.676Z,1015.02
2022-10-16T04:49:11.846Z,1015.03
2022-10-16T04:50:12.015Z,1015.04
2022-10-16T04:51:12.165Z,1015.05
2022-10-16T04:52:12.351Z,1015.02
2022-10-16T04:53:12.497Z,1015.09
2022-10-16T04:54:12.707Z,1015.12
2022-10-16T04:55:12.866Z,1015.15
2022-10-16T04:56:13.057Z,1015.17
2022-10-16T04:57:13.207Z,1015.21
2022-10-16T04:58:13.437Z,1015.21
2022-10-16T04:59:13.566Z,1015.18
2022-10-16T05:00:13.758Z,1015.24
2022-10-16T05:01:13.907Z,1015.22
2022-10-16T05:02:14.069Z,1015.30
2022-10-16T05:03:14.298Z,1015.33
2022-10-16T05:04:14.410Z,1015.35
2022-10-16T05:05:14.559Z,1015.36
2022-10-16T05:06:14.756Z,1015.39
2022-10-16T05:07:14.917Z,1015.40
2022-10-16T05:08:15.098Z,1015.41
2022-10-16T05:09:15.258Z,1015.40
2022-10-16T05:10:15.432Z,1015.40
2022-10-16T05:11:15.576Z,1015.35
2022-10-16T05:12:15.744Z,1015.36
2022-10-16T05:13:15.917Z,1015.27
2022-10-16T05:14:16.083Z,1015.30
2022-10-16T05:15:16.237Z,1015.26
2022-10-16T05:16:16.409Z,1015.24
2022-10-16T05:17:16.596Z,1015.26
2022-10-16T05:18:16.769Z,1015.21
2022-10-16T05:19:32.393Z,1015.23
2022-10-16T05:20:18.117Z,1015.26
2022-10-16T05:21:17.290Z,1015.29
2022-10-16T05:22:17.469Z,1015.31
2022-10-16T05:23:17.651Z,1015.37
2022-10-16T05:24:17.835Z,1015.39
2022-10-16T05:25:18.007Z,1015.35
2022-10-16T05:26:18.188Z,1015.34
2022-10-16T05:27:18.371Z,1015.37
2022-10-16T05:28:18.632Z,1015.40
2022-10-16T05:29:18.717Z,1015.37
2022-10-16T05:30:18.897Z,1015.41
2022-10-16T05:31:19.078Z,1015.42
2022-10-16T05:32:19.259Z,1015.46
2022-10-16T05:33:19.471Z,1015.48
2022-10-16T05:34:19.639Z,1015.44
2022-10-16T05:35:19.798Z,1015.44
2022-10-16T05:36:19.987Z,1015.43
2022-10-16T05:37:20.138Z,1015.45
2022-10-16T05:38:20.329Z,1015.45
2022-10-16T05:39:20.518Z,1015.48
2022-10-16T05:40:20.688Z,1015.44
2022-10-16T05:41:20.828Z,1015.45
2022-10-16T05:42:21.008Z,1015.38
2022-10-16T05:43:21.228Z,1015.39
2022-10-16T05:44:21.426Z,1015.37
2022-10-16T05:45:21.541Z,1015.36
2022-10-16T05:46:21.739Z,1015.35
2022-10-16T05:47:21.879Z,1015.37
2022-10-16T05:48:22.088Z,1015.39
2022-10-16T05:49:22.230Z,1015.40
2022-10-16T05:50:22.415Z,1015.43
2022-10-16T05:51:22.598Z,1015.47
2022-10-16T05:52:22.778Z,1015.47
2022-10-16T05:53:22.979Z,1015.48
2022-10-16T05:54:23.162Z,1015.47
2022-10-16T05:55:23.348Z,1015.47
2022-10-16T05:56:23.520Z,1015.47
2022-10-16T05:57:23.808Z,1015.51
2022-10-16T05:58:23.889Z,1015.51
2022-10-16T05:59:24.059Z,1015.53
2022-10-16T06:00:24.237Z,1015.54
2022-10-16T06:01:24.484Z,1015.56
2022-10-16T06:02:24.590Z,1015.64
2022-10-16T06:03:24.789Z,1015.60
2022-10-16T06:04:24.959Z,1015.61
2022-10-16T06:05:25.109Z,1015.60
2022-10-16T06:06:25.289Z,1015.63
2022-10-16T06:07:25.823Z,1015.57
2022-10-16T06:08:25.653Z,1015.58
2022-10-16T06:09:25.790Z,1015.55
2022-10-16T06:10:25.960Z,1015.58
2022-10-16T06:11:26.149Z,1015.56
2022-10-16T06:12:26.340Z,1015.63
2022-10-16T06:13:26.512Z,1015.62
2022-10-16T06:14:26.692Z,1015.67
2022-10-16T06:15:26.840Z,1015.64
2022-10-16T06:16:27.018Z,1015.69
2022-10-16T06:17:27.599Z,1015.70
2022-10-16T06:18:27.401Z,1015.70
2022-10-16T06:19:27.540Z,1015.71
2022-10-16T06:20:27.728Z,1015.75
2022-10-16T06:21:27.898Z,1015.77
2022-10-16T06:22:28.090Z,1015.75
2022-10-16T06:23:28.258Z,1015.81
2022-10-16T06:24:28.430Z,1015.83
2022-10-16T06:25:28.611Z,1015.86
2022-10-16T06:26:28.791Z,1015.89
2022-10-16T06:27:29.244Z,1015.88
2022-10-16T06:28:29.210Z,1015.92
2022-10-16T06:29:29.321Z,1015.93
2022-10-16T06:30:29.502Z,1015.92
2022-10-16T06:31:29.681Z,1015.95
2022-10-16T06:32:29.864Z,1015.99
2022-10-16T06:33:30.061Z,1016.01
2022-10-16T06:34:30.241Z,1016.02
2022-10-16T06:35:30.429Z,1016.04
2022-10-16T06:36:30.612Z,1016.05
2022-10-16T06:37:30.761Z,1016.03
2022-10-16T06:38:30.952Z,1016.07
2022-10-16T06:39:31.111Z,1016.08
2022-10-16T06:40:31.282Z,1016.10
2022-10-16T06:41:31.440Z,1016.08
2022-10-16T06:42:31.625Z,1016.05
2022-10-16T06:43:31.821Z,1016.01
2022-10-16T06:44:31.991Z,1015.96
2022-10-16T06:45:32.171Z,1015.98
2022-10-16T06:46:32.360Z,1015.98
2022-10-16T06:47:32.532Z,1016.02
2022-10-16T06:48:32.754Z,1016.07
2022-10-16T06:49:32.882Z,1016.07
2022-10-16T06:50:33.073Z,1016.07
2022-10-16T06:51:33.252Z,1016.04
2022-10-16T06:52:33.452Z,1016.06
2022-10-16T06:53:39.461Z,1016.07
2022-10-16T06:54:42.051Z,1016.08
2022-10-16T06:55:34.973Z,1016.13
2022-10-16T06:56:34.166Z,1016.13
2022-10-16T06:57:34.342Z,1016.13
2022-10-16T06:58:34.533Z,1016.16
2022-10-16T06:59:34.684Z,1016.20
2022-10-16T07:00:34.863Z,1016.25
2022-10-16T07:01:35.042Z,1016.20
2022-10-16T07:02:35.221Z,1016.27
2022-10-16T07:03:35.413Z,1016.31
2022-10-16T07:04:35.580Z,1016.33
2022-10-16T07:05:35.742Z,1016.36
2022-10-16T07:06:35.923Z,1016.37
2022-10-16T07:07:36.107Z,1016.29
2022-10-16T07:08:36.307Z,1016.20
2022-10-16T07:09:36.523Z,1016.23
2022-10-16T07:10:36.636Z,1016.22
2022-10-16T07:11:36.805Z,1016.21
2022-10-16T07:12:36.991Z,1016.18
2022-10-16T07:13:37.174Z,1016.18
2022-10-16T07:14:37.354Z,1016.21
2022-10-16T07:15:37.534Z,1016.26
2022-10-16T07:16:37.722Z,1016.27
2022-10-16T07:17:37.896Z,1016.23
2022-10-16T07:18:38.085Z,1016.24
2022-10-16T07:19:38.235Z,1016.25
2022-10-16T07:20:38.404Z,1016.22
2022-10-16T07:21:38.587Z,1016.23
2022-10-16T07:22:38.776Z,1016.24
2022-10-16T07:23:38.945Z,1016.24
2022-10-16T07:24:39.095Z,1016.30
2022-10-16T07:25:39.276Z,1016.32
2022-10-16T07:26:39.454Z,1016.31
2022-10-16T07:27:39.643Z,1016.32
2022-10-16T07:28:39.918Z,1016.30
2022-10-16T07:29:39.976Z,1016.41
2022-10-16T07:30:40.164Z,1016.39
2022-10-16T07:31:40.363Z,1016.40
2022-10-16T07:32:40.548Z,1016.36
2022-10-16T07:33:40.715Z,1016.29
2022-10-16T07:34:40.875Z,1016.30
2022-10-16T07:35:41.016Z,1016.28
2022-10-16T07:37:41.366Z,1016.34
2022-10-16T07:38:41.553Z,1016.40
2022-10-16T07:39:41.732Z,1016.42
2022-10-16T07:40:41.930Z,1016.46
2022-10-16T07:41:42.087Z,1016.43
2022-10-16T07:42:42.274Z,1016.42
2022-10-16T07:43:42.471Z,1016.36
2022-10-16T07:44:42.606Z,1016.34
2022-10-16T07:45:42.826Z,1016.38
2022-10-16T07:46:42.958Z,1016.41
2022-10-16T07:47:43.135Z,1016.48
2022-10-16T07:48:43.343Z,1016.51
2022-10-16T07:49:43.506Z,1016.53
2022-10-16T07:50:43.686Z,1016.53
2022-10-16T07:51:43.887Z,1016.59
2022-10-16T07:52:44.058Z,1016.61
2022-10-16T07:53:44.249Z,1016.69
2022-10-16T07:54:44.445Z,1016.73
2022-10-16T07:55:44.571Z,1016.73
2022-10-16T07:56:44.749Z,1016.73
2022-10-16T07:57:44.927Z,1016.71
2022-10-16T07:58:45.117Z,1016.64
2022-10-16T07:59:45.310Z,1016.65
2022-10-16T08:00:45.486Z,1016.69
2022-10-16T08:01:45.704Z,1016.71
2022-10-16T08:02:45.857Z,1016.77
2022-10-16T08:03:46.050Z,1016.78
2022-10-16T08:04:46.198Z,1016.73
2022-10-16T08:05:46.378Z,1016.74
2022-10-16T08:06:46.574Z,1016.73
2022-10-16T08:07:46.749Z,1016.77
2022-10-16T08:08:46.949Z,1016.80
2022-10-16T08:09:47.110Z,1016.82
2022-10-16T08:10:47.327Z,1016.76
2022-10-16T08:11:47.458Z,1016.81
2022-10-16T08:12:47.638Z,1016.87
2022-10-16T08:13:47.828Z,1016.85
2022-10-16T08:14:47.969Z,1016.83
2022-10-16T08:15:48.149Z,1016.79
2022-10-16T08:16:48.329Z,1016.73
2022-10-16T08:17:48.508Z,1016.64
2022-10-16T08:18:48.718Z,1016.60
2022-10-16T08:19:48.882Z,1016.60
2022-10-16T08:20:49.049Z,1016.64
2022-10-16T08:21:49.229Z,1016.69
2022-10-16T08:22:49.399Z,1016.72
2022-10-16T08:23:53.103Z,1016.76
2022-10-16T08:24:50.742Z,1016.80
2022-10-16T08:25:49.920Z,1016.85
2022-10-16T08:26:50.100Z,1016.86
2022-10-16T08:27:50.289Z,1016.91
2022-10-16T08:28:50.531Z,1016.90
2022-10-16T08:29:50.640Z,1016.89
2022-10-16T08:30:50.821Z,1016.82
2022-10-16T08:31:51.012Z,1016.82
2022-10-16T08:32:51.190Z,1016.79
2022-10-16T08:33:51.389Z,1016.78
2022-10-16T08:34:51.550Z,1016.82
2022-10-16T08:35:51.741Z,1016.82
2022-10-16T08:36:51.882Z,1016.86
2022-10-16T08:37:52.072Z,1016.84
2022-10-16T08:38:52.221Z,1016.88
2022-10-16T08:39:52.401Z,1016.81
2022-10-16T08:40:53.752Z,1016.82
2022-10-16T08:41:52.761Z,1016.80
2022-10-16T08:42:52.939Z,1016.82
2022-10-16T08:43:53.131Z,1016.88
2022-10-16T08:44:53.301Z,1016.85
2022-10-16T08:45:53.482Z,1016.84
2022-10-16T08:46:53.662Z,1016.85
2022-10-16T08:47:53.842Z,1016.83
2022-10-16T08:48:54.040Z,1016.85
2022-10-16T08:49:54.202Z,1016.88
2022-10-16T08:50:54.383Z,1016.91
2022-10-16T08:51:54.562Z,1016.91
2022-10-16T08:52:54.733Z,1016.90
2022-10-16T08:53:54.942Z,1016.89
2022-10-16T08:54:55.085Z,1016.93
2022-10-16T08:55:55.263Z,1016.92
2022-10-16T08:56:55.435Z,1016.96
2022-10-16T08:57:55.601Z,1017.00
2022-10-16T08:58:59.892Z,1017.00
2022-10-16T08:59:56.933Z,1017.03
2022-10-16T09:00:56.153Z,1017.01
2022-10-16T09:01:56.283Z,1017.10
2022-10-16T09:02:56.442Z,1017.14
2022-10-16T09:03:56.616Z,1017.22
2022-10-16T09:04:57.014Z,1017.20
2022-10-16T09:05:56.936Z,1017.24
2022-10-16T09:06:57.104Z,1017.29
2022-10-16T09:07:57.335Z,1017.22
2022-10-16T09:08:57.475Z,1017.20
2022-10-16T09:09:57.644Z,1017.22
2022-10-16T09:10:57.812Z,1017.20
2022-10-16T09:11:57.974Z,1017.10
2022-10-16T09:12:58.134Z,1017.14
2022-10-16T09:13:58.335Z,1017.11
2022-10-16T09:14:58.477Z,1017.17
2022-10-16T09:15:58.645Z,1017.12
2022-10-16T09:16:58.912Z,1017.09
2022-10-16T09:17:59.001Z,1017.04
2022-10-16T09:18:59.186Z,1017.07
2022-10-16T09:19:59.355Z,1017.05
2022-10-16T09:20:59.516Z,1017.05
2022-10-16T09:21:59.706Z,1017.05
2022-10-16T09:22:59.875Z,1017.09
2022-10-16T09:24:00.088Z,1017.07
2022-10-16T09:25:00.238Z,1017.01
2022-10-16T09:26:00.441Z,1017.04
2022-10-16T09:27:00.617Z,1017.10
2022-10-16T09:28:00.778Z,1017.15
2022-10-16T09:29:01.031Z,1017.14
2022-10-16T09:30:01.128Z,1017.14
2022-10-16T09:31:01.318Z,1017.15
2022-10-16T09:32:01.498Z,1017.18
2022-10-16T09:33:01.668Z,1017.18
2022-10-16T09:34:01.850Z,1017.18
2022-10-16T09:35:02.019Z,1017.13
2022-10-16T09:36:02.208Z,1017.15
2022-10-16T09:37:02.389Z,1017.12
2022-10-16T09:38:02.549Z,1017.09
2022-10-16T09:39:02.730Z,1017.11
2022-10-16T09:40:05.325Z,1017.15
2022-10-16T09:41:03.568Z,1017.20
2022-10-16T09:42:03.219Z,1017.27
2022-10-16T09:43:03.349Z,1017.27
2022-10-16T09:44:03.554Z,1017.30
2022-10-16T09:45:03.708Z,1017.27
2022-10-16T09:46:03.879Z,1017.28
2022-10-16T09:47:04.050Z,1017.32
2022-10-16T09:48:04.231Z,1017.37
2022-10-16T09:49:04.433Z,1017.39
2022-10-16T09:50:04.598Z,1017.39
2022-10-16T09:51:04.780Z,1017.44
2022-10-16T09:52:04.961Z,1017.45
2022-10-16T09:53:05.131Z,1017.45
2022-10-16T09:54:05.352Z,1017.47
2022-10-16T09:55:05.491Z,1017.43
2022-10-16T09:56:09.147Z,1017.39
2022-10-16T09:57:06.852Z,1017.49
2022-10-16T09:58:06.044Z,1017.49
2022-10-16T09:59:06.234Z,1017.48
2022-10-16T10:00:06.402Z,1017.48
2022-10-16T10:01:06.562Z,1017.47
2022-10-16T10:02:06.744Z,1017.51
2022-10-16T10:03:06.905Z,1017.47
2022-10-16T10:04:07.090Z,1017.49
2022-10-16T10:05:07.255Z,1017.50
2022-10-16T10:06:07.530Z,1017.48
2022-10-16T10:07:07.577Z,1017.39
2022-10-16T10:08:07.743Z,1017.40
2022-10-16T10:09:07.935Z,1017.41
2022-10-16T10:10:08.074Z,1017.45
2022-10-16T10:11:10.621Z,1017.42
2022-10-16T10:12:09.445Z,1017.44
2022-10-16T10:13:08.595Z,1017.41
2022-10-16T10:14:08.795Z,1017.45
2022-10-16T10:15:08.983Z,1017.51
2022-10-16T10:16:09.173Z,1017.57
2022-10-16T10:17:09.335Z,1017.52
2022-10-16T10:18:09.525Z,1017.54
2022-10-16T10:19:09.777Z,1017.52
2022-10-16T10:20:09.876Z,1017.53
2022-10-16T10:21:10.056Z,1017.66
2022-10-16T10:22:10.280Z,1017.66
2022-10-16T10:23:10.426Z,1017.68
2022-10-16T10:24:10.598Z,1017.72
2022-10-16T10:25:10.779Z,1017.64
2022-10-16T10:26:10.906Z,1017.70
2022-10-16T10:27:11.066Z,1017.69
2022-10-16T10:28:11.217Z,1017.67
2022-10-16T10:29:11.437Z,1017.73
2022-10-16T10:30:11.618Z,1017.72
2022-10-16T10:31:11.751Z,1017.72
2022-10-16T10:32:11.927Z,1017.71
2022-10-16T10:33:12.107Z,1017.63
2022-10-16T10:34:12.300Z,1017.67
2022-10-16T10:35:12.467Z,1017.69
2022-10-16T10:36:12.649Z,1017.74
2022-10-16T10:37:12.819Z,1017.77
2022-10-16T10:38:13.018Z,1017.79
2022-10-16T10:39:13.214Z,1017.76
2022-10-16T10:40:13.347Z,1017.73
2022-10-16T10:41:13.518Z,1017.70
2022-10-16T10:42:13.721Z,1017.68
2022-10-16T10:43:13.849Z,1017.71
2022-10-16T10:44:14.087Z,1017.73
2022-10-16T10:45:14.189Z,1017.75
2022-10-16T10:46:14.378Z,1017.78
2022-10-16T10:47:14.559Z,1017.80
2022-10-16T10:48:14.797Z,1017.76
2022-10-16T10:49:14.920Z,1017.73
2022-10-16T10:50:15.196Z,1017.67
2022-10-16T10:51:15.241Z,1017.73
2022-10-16T10:52:15.421Z,1017.69
2022-10-16T10:53:15.594Z,1017.79
2022-10-16T10:54:15.800Z,1017.72
2022-10-16T10:55:15.931Z,1017.69
2022-10-16T10:56:16.110Z,1017.66
2022-10-16T10:57:16.290Z,1017.70
2022-10-16T10:58:16.470Z,1017.72
2022-10-16T10:59:16.672Z,1017.71
2022-10-16T11:00:16.845Z,1017.73
2022-10-16T11:01:17.065Z,1017.71
2022-10-16T11:02:17.291Z,1017.70
2022-10-16T11:03:17.351Z,1017.70
2022-10-16T11:04:17.585Z,1017.73
2022-10-16T11:05:17.682Z,1017.74
2022-10-16T11:06:17.862Z,1017.72
2022-10-16T11:07:18.042Z,1017.78
2022-10-16T11:08:18.221Z,1017.76
2022-10-16T11:09:18.412Z,1017.75
2022-10-16T11:10:18.582Z,1017.77
2022-10-16T11:11:18.763Z,1017.72
2022-10-16T11:12:18.946Z,1017.75
2022-10-16T11:13:19.125Z,1017.75
2022-10-16T11:14:19.322Z,1017.79
2022-10-16T11:15:19.485Z,1017.77
2022-10-16T11:16:21.546Z,1017.74
2022-10-16T11:17:19.826Z,1017.71
2022-10-16T11:18:20.012Z,1017.74
2022-10-16T11:19:20.195Z,1017.70
2022-10-16T11:20:20.335Z,1017.69
2022-10-16T11:21:20.514Z,1017.72
2022-10-16T11:22:20.695Z,1017.70
2022-10-16T11:23:20.889Z,1017.72
2022-10-16T11:24:21.074Z,1017.70
2022-10-16T11:25:21.235Z,1017.72
2022-10-16T11:26:21.418Z,1017.74
2022-10-16T11:27:21.595Z,1017.70
2022-10-16T11:28:21.935Z,1017.69
2022-10-16T11:29:21.945Z,1017.69
2022-10-16T11:30:22.137Z,1017.68
2022-10-16T11:31:22.306Z,1017.69
2022-10-16T11:32:22.495Z,1017.75
2022-10-16T11:33:22.697Z,1017.69
2022-10-16T11:34:22.849Z,1017.71
2022-10-16T11:35:23.017Z,1017.70
2022-10-16T11:36:23.208Z,1017.72
2022-10-16T11:37:23.389Z,1017.69
2022-10-16T11:38:23.618Z,1017.70
2022-10-16T11:39:23.758Z,1017.72
2022-10-16T11:40:23.927Z,1017.75
2022-10-16T11:41:24.107Z,1017.76
2022-10-16T11:42:24.267Z,1017.74
2022-10-16T11:43:24.447Z,1017.72
2022-10-16T11:44:24.652Z,1017.74
2022-10-16T11:45:24.798Z,1017.75
2022-10-16T11:46:24.978Z,1017.78
2022-10-16T11:47:46.743Z,1017.78
2022-10-16T11:48:26.373Z,1017.79
2022-10-16T11:49:25.529Z,1017.76
2022-10-16T11:50:25.698Z,1017.75
2022-10-16T11:51:25.892Z,1017.76
2022-10-16T11:52:26.072Z,1017.76
2022-10-16T11:53:26.262Z,1017.77
2022-10-16T11:54:26.439Z,1017.78
2022-10-16T11:55:26.639Z,1017.75
2022-10-16T11:56:26.809Z,1017.78
2022-10-16T11:57:27.313Z,1017.79
2022-10-16T11:58:27.179Z,1017.81
2022-10-16T11:59:27.349Z,1017.83
2022-10-16T12:00:27.520Z,1017.83
2022-10-16T12:01:27.705Z,1017.90
2022-10-16T12:02:28.178Z,1017.88
2022-10-16T12:03:28.104Z,1017.91
2022-10-16T12:04:28.242Z,1017.89
2022-10-16T12:05:28.421Z,1017.96
2022-10-16T12:06:28.601Z,1017.99
2022-10-16T12:07:28.780Z,1017.98
2022-10-16T12:08:28.983Z,1018.01